Terminal Aerodrome Forecast
Issued by NWS Miami, FL

Home | Current Version | Previous Version | Text Only | Print | Product List | Glossary On
Versions: 1 2 3 4 5 6 7 8 9 10 11 12 13 14 15 16 17 18 19 20 21 22 23 24 25
000
FTUS42 KMFL 302045 AAA
TAFPBI
TAF AMD
KPBI 302045Z 3021/3118 12012KT P6SM SCT035 SCT100 SCT250
     FM310000 10006KT P6SM SCT030 SCT250
     FM310200 VRB04KT P6SM FEW035 SCT250
     FM311500 13008KT P6SM VCSH SCT025 SCT100 BKN250=

USA.gov is the U.S. government's official web portal to all federal, state and local government web resources and services.